createdAt,value
2022-09-12T00:00:48.786Z,20.65
2022-09-12T00:03:18.381Z,21.85
2022-09-12T00:05:49.157Z,23.33
2022-09-12T00:10:52.202Z,22.15
2022-09-12T00:13:21.761Z,21.95
2022-09-12T00:15:51.034Z,24.77
2022-09-12T00:18:20.879Z,24.75
2022-09-12T00:20:50.306Z,23.42
2022-09-12T00:23:19.629Z,24.50
2022-09-12T00:25:52.622Z,23.35
2022-09-12T00:28:21.981Z,26.63
2022-09-12T00:30:51.555Z,25.02
2022-09-12T00:33:21.118Z,21.02
2022-09-12T00:35:53.014Z,23.42
2022-09-12T00:38:23.398Z,28.45
2022-09-12T00:40:53.932Z,28.38
2022-09-12T00:43:39.197Z,23.38
2022-09-12T00:46:17.643Z,25.48
2022-09-12T00:48:53.701Z,24.00
2022-09-12T00:51:24.455Z,27.27
2022-09-12T00:53:56.795Z,25.90
2022-09-12T00:56:29.116Z,25.98
2022-09-12T00:59:06.455Z,30.08
2022-09-12T01:01:36.819Z,29.85
2022-09-12T01:04:06.505Z,27.08
2022-09-12T01:06:38.446Z,29.92
2022-09-12T01:09:08.664Z,24.23
2022-09-12T01:11:41.392Z,23.27
2022-09-12T01:14:10.999Z,20.88
2022-09-12T01:16:40.999Z,27.52
2022-09-12T01:19:37.135Z,23.80
2022-09-12T01:22:20.915Z,23.30
2022-09-12T01:25:07.134Z,24.65
2022-09-12T01:27:49.113Z,24.05
2022-09-12T01:30:34.438Z,25.83
2022-09-12T01:33:27.994Z,28.08
2022-09-12T01:38:40.690Z,23.50
2022-09-12T01:41:14.196Z,31.65
2022-09-12T01:43:49.306Z,26.23
2022-09-12T01:46:28.810Z,26.25
2022-09-12T01:49:03.808Z,26.85
2022-09-12T01:51:38.408Z,27.17
2022-09-12T01:54:11.809Z,29.33
2022-09-12T01:56:44.414Z,21.48
2022-09-12T01:59:21.568Z,28.55
2022-09-12T02:01:57.843Z,25.60
2022-09-12T02:04:34.303Z,25.63
2022-09-12T02:07:12.559Z,27.40
2022-09-12T02:09:47.214Z,26.08
2022-09-12T02:12:27.222Z,30.13
2022-09-12T02:15:03.047Z,24.55
2022-09-12T02:17:38.513Z,29.35
2022-09-12T02:20:21.407Z,31.25
2022-09-12T02:23:08.290Z,30.85
2022-09-12T02:25:43.230Z,29.27
2022-09-12T02:28:16.696Z,28.90
2022-09-12T02:30:56.333Z,27.13
2022-09-12T02:33:32.174Z,25.45
2022-09-12T02:36:14.453Z,30.30
2022-09-12T02:38:46.969Z,34.10
2022-09-12T02:41:20.525Z,30.48
2022-09-12T02:43:51.466Z,30.15
2022-09-12T02:46:23.690Z,28.17
2022-09-12T02:48:54.583Z,33.00
2022-09-12T02:51:24.045Z,33.08
2022-09-12T02:53:55.939Z,29.00
2022-09-12T02:56:28.475Z,33.05
2022-09-12T02:59:04.174Z,30.42
2022-09-12T03:01:56.825Z,29.77
2022-09-12T03:04:56.976Z,32.50
2022-09-12T03:07:44.611Z,35.13
2022-09-12T03:10:23.733Z,29.40
2022-09-12T03:13:03.537Z,32.40
2022-09-12T03:15:43.303Z,28.20
2022-09-12T03:18:24.471Z,31.02
2022-09-12T03:21:04.633Z,32.47
2022-09-12T03:23:39.520Z,33.08
2022-09-12T03:26:14.311Z,33.80
2022-09-12T03:28:45.491Z,38.20
2022-09-12T03:31:17.602Z,33.95
2022-09-12T03:33:48.164Z,29.65
2022-09-12T03:36:24.316Z,35.05
2022-09-12T03:38:54.499Z,28.92
2022-09-12T03:41:24.318Z,31.40
2022-09-12T03:43:53.897Z,32.83
2022-09-12T03:46:23.932Z,34.75
2022-09-12T03:48:53.745Z,36.33
2022-09-12T03:51:24.838Z,33.78
2022-09-12T03:53:54.891Z,40.85
2022-09-12T03:56:24.789Z,38.13
2022-09-12T03:58:54.714Z,34.80
2022-09-12T04:01:25.481Z,37.60
2022-09-12T04:03:55.525Z,32.47
2022-09-12T04:06:26.936Z,33.97
2022-09-12T04:08:57.331Z,41.60
2022-09-12T04:11:27.242Z,38.95
2022-09-12T04:13:57.080Z,35.15
2022-09-12T04:16:26.914Z,43.15
2022-09-12T04:18:57.411Z,40.30
2022-09-12T04:21:28.663Z,43.33
2022-09-12T04:24:06.296Z,40.08
2022-09-12T04:26:35.586Z,45.83
2022-09-12T04:29:05.240Z,38.05
2022-09-12T04:31:34.045Z,41.95
2022-09-12T04:34:03.054Z,38.83
2022-09-12T04:36:34.351Z,35.97
2022-09-12T04:39:06.140Z,42.33
2022-09-12T04:41:37.189Z,38.38
2022-09-12T04:44:08.661Z,39.55
2022-09-12T04:46:42.043Z,43.53
2022-09-12T04:49:11.248Z,37.70
2022-09-12T04:51:43.213Z,38.53
2022-09-12T04:54:15.176Z,40.30
2022-09-12T04:56:45.784Z,52.35
2022-09-12T04:59:15.873Z,44.17
2022-09-12T05:01:44.898Z,38.95
2022-09-12T05:04:14.712Z,42.28
2022-09-12T05:06:47.420Z,42.15
2022-09-12T05:09:17.135Z,39.45
2022-09-12T05:12:03.867Z,38.00
2022-09-12T05:14:35.254Z,36.88
2022-09-12T05:17:06.122Z,42.47
2022-09-12T05:19:37.044Z,40.50
2022-09-12T05:22:07.377Z,43.55
2022-09-12T05:24:37.874Z,38.85
2022-09-12T05:27:06.685Z,40.80
2022-09-12T05:29:36.001Z,38.90
2022-09-12T05:32:07.321Z,43.55
2022-09-12T05:34:37.891Z,42.08
2022-09-12T05:37:08.097Z,39.25
2022-09-12T05:39:36.852Z,40.85
2022-09-12T05:42:09.282Z,62.80
2022-09-12T05:44:38.040Z,77.80
2022-09-12T05:47:07.155Z,45.58
2022-09-12T05:49:37.226Z,49.67
2022-09-12T05:52:07.718Z,46.13
2022-09-12T05:54:36.956Z,47.10
2022-09-12T05:57:06.175Z,45.58
2022-09-12T05:59:34.888Z,42.58
2022-09-12T06:02:04.366Z,45.97
2022-09-12T06:04:33.698Z,46.90
2022-09-12T06:07:02.963Z,45.72
2022-09-12T06:09:33.063Z,40.22
2022-09-12T06:12:05.023Z,45.28
2022-09-12T06:14:34.205Z,43.63
2022-09-12T06:17:03.099Z,40.22
2022-09-12T06:19:32.183Z,45.22
2022-09-12T06:22:03.225Z,45.45
2022-09-12T06:24:33.535Z,40.95
2022-09-12T06:27:02.812Z,47.50
2022-09-12T06:29:34.018Z,47.78
2022-09-12T06:32:05.455Z,41.70
2022-09-12T06:34:34.085Z,60.42
2022-09-12T06:37:04.121Z,58.90
2022-09-12T06:39:36.705Z,42.65
2022-09-12T06:42:05.705Z,45.60
2022-09-12T06:44:37.983Z,46.33
2022-09-12T06:47:09.154Z,38.33
2022-09-12T06:49:38.452Z,43.97
2022-09-12T06:52:07.627Z,44.03
2022-09-12T06:54:37.836Z,43.65
2022-09-12T06:57:07.519Z,36.90
2022-09-12T06:59:36.417Z,39.53
2022-09-12T07:02:05.654Z,42.83
2022-09-12T07:04:36.887Z,36.83
2022-09-12T07:07:05.855Z,36.53
2022-09-12T07:09:34.925Z,37.58
2022-09-12T07:12:06.372Z,39.75
2022-09-12T07:14:35.153Z,31.98
2022-09-12T07:17:12.888Z,37.35
2022-09-12T07:19:42.084Z,39.60
2022-09-12T07:22:11.034Z,34.90
2022-09-12T07:24:42.499Z,32.58
2022-09-12T07:27:13.164Z,35.35
2022-09-12T07:29:42.475Z,37.60
2022-09-12T07:32:12.196Z,34.35
2022-09-12T07:34:40.891Z,33.75
2022-09-12T07:37:09.659Z,33.55
2022-09-12T07:39:39.037Z,34.42
2022-09-12T07:42:12.754Z,29.58
2022-09-12T07:44:44.507Z,30.23
2022-09-12T07:47:13.445Z,28.25
2022-09-12T07:49:42.297Z,28.88
2022-09-12T07:52:13.393Z,33.30
2022-09-12T07:54:42.329Z,25.73
2022-09-12T07:57:11.218Z,28.45
2022-09-12T07:59:52.550Z,27.30
2022-09-12T08:02:23.514Z,30.83
2022-09-12T08:04:55.361Z,29.52
2022-09-12T08:07:24.331Z,26.23
2022-09-12T08:09:53.529Z,30.30
2022-09-12T08:12:22.689Z,32.20
2022-09-12T08:14:51.570Z,24.98
2022-09-12T08:17:20.721Z,24.00
2022-09-12T08:19:51.130Z,23.98
2022-09-12T08:22:22.114Z,23.67
2022-09-12T08:24:51.352Z,25.65
2022-09-12T08:27:22.642Z,22.45
2022-09-12T08:29:52.030Z,28.75
2022-09-12T08:32:21.012Z,24.85
2022-09-12T08:34:51.632Z,27.83
2022-09-12T08:37:20.414Z,27.13
2022-09-12T08:39:49.219Z,24.20
2022-09-12T08:42:30.996Z,23.15
2022-09-12T08:45:16.598Z,21.38
2022-09-12T08:47:47.463Z,24.05
2022-09-12T08:50:20.582Z,20.42
2022-09-12T08:52:58.744Z,22.33
2022-09-12T08:55:32.930Z,24.17
2022-09-12T08:58:07.177Z,29.75
2022-09-12T09:00:47.744Z,22.95
2022-09-12T09:03:40.082Z,19.67
2022-09-12T09:06:22.380Z,21.75
2022-09-12T09:09:05.840Z,21.58
2022-09-12T09:11:53.231Z,20.52
2022-09-12T09:14:50.791Z,25.55
2022-09-12T09:17:28.187Z,21.40
2022-09-12T09:20:06.944Z,20.77
2022-09-12T09:22:45.007Z,24.88
2022-09-12T09:25:23.045Z,20.00
2022-09-12T09:27:59.578Z,20.08
2022-09-12T09:30:29.143Z,17.23
2022-09-12T09:33:01.482Z,19.63
2022-09-12T09:35:45.678Z,29.42
2022-09-12T09:38:24.735Z,22.30
2022-09-12T09:41:06.729Z,18.67
2022-09-12T09:43:35.777Z,20.10
2022-09-12T09:46:05.423Z,14.98
2022-09-12T09:48:37.109Z,17.67
2022-09-12T09:51:09.278Z,17.00
2022-09-12T09:53:46.867Z,18.38
2022-09-12T09:56:28.178Z,14.95
2022-09-12T09:58:57.054Z,13.13
2022-09-12T10:01:27.537Z,12.90
2022-09-12T10:03:57.294Z,13.15
2022-09-12T10:06:34.434Z,12.20
2022-09-12T10:09:19.908Z,11.32
2022-09-12T10:11:49.570Z,22.05
2022-09-12T10:14:37.174Z,11.70
2022-09-12T10:17:25.923Z,9.23
2022-09-12T10:20:17.505Z,7.82
2022-09-12T10:22:48.774Z,9.68
2022-09-12T10:25:20.759Z,6.88
2022-09-12T10:27:55.503Z,8.23
2022-09-12T10:30:28.698Z,9.95
2022-09-12T10:33:10.284Z,8.40
2022-09-12T10:35:49.809Z,8.25
2022-09-12T10:38:24.582Z,9.15
2022-09-12T10:41:00.084Z,10.63
2022-09-12T10:43:31.324Z,11.50
2022-09-12T10:46:21.011Z,9.80
2022-09-12T10:48:51.588Z,11.60
2022-09-12T10:51:29.366Z,11.93
2022-09-12T10:54:03.021Z,9.48
2022-09-12T10:56:42.231Z,8.93
2022-09-12T10:59:25.747Z,18.90
2022-09-12T11:02:01.168Z,12.52
2022-09-12T11:04:42.954Z,7.35
2022-09-12T11:26:51.068Z,10.00
2022-09-12T11:29:37.031Z,7.78
2022-09-12T11:32:23.524Z,6.65
2022-09-12T11:35:02.474Z,7.57
2022-09-12T11:37:46.225Z,8.90
2022-09-12T11:40:28.614Z,12.98
2022-09-12T11:43:06.955Z,7.35
2022-09-12T11:45:41.067Z,9.80
2022-09-12T11:48:16.515Z,8.63
2022-09-12T11:50:45.185Z,5.57
2022-09-12T11:53:21.316Z,6.57
2022-09-12T11:55:56.546Z,48.08
2022-09-12T11:58:29.338Z,8.82
2022-09-12T12:01:07.738Z,8.57
2022-09-12T12:03:43.367Z,6.35
2022-09-12T12:06:19.116Z,6.85
2022-09-12T12:08:50.537Z,6.53
2022-09-12T12:11:32.199Z,7.00
2022-09-12T12:14:05.703Z,7.25
2022-09-12T12:16:38.297Z,6.72
2022-09-12T12:21:42.413Z,5.70
2022-09-12T12:24:20.535Z,6.05
2022-09-12T12:26:58.602Z,8.40
2022-09-12T12:29:47.375Z,7.13
2022-09-12T12:32:25.438Z,8.10
2022-09-12T12:35:18.613Z,5.90
2022-09-12T12:37:53.278Z,7.07
2022-09-12T12:40:28.639Z,12.82
2022-09-12T12:43:22.677Z,7.88
2022-09-12T12:46:04.929Z,6.97
2022-09-12T12:48:46.266Z,6.72
2022-09-12T12:52:01.258Z,7.57
2022-09-12T12:54:53.700Z,9.93
2022-09-12T12:57:37.175Z,9.05
2022-09-12T13:00:09.837Z,12.98
2022-09-12T13:05:21.044Z,5.45
2022-09-12T13:07:55.750Z,5.40
2022-09-12T13:10:29.905Z,4.70
2022-09-12T13:13:03.422Z,6.18
2022-09-12T13:15:55.837Z,7.25
2022-09-12T13:18:32.808Z,6.07
2022-09-12T13:21:09.138Z,6.25
2022-09-12T13:23:37.925Z,6.30
2022-09-12T13:26:12.897Z,7.20
2022-09-12T13:28:41.674Z,6.18
2022-09-12T13:31:19.396Z,13.18
2022-09-12T13:33:54.587Z,7.88
2022-09-12T13:36:58.605Z,8.80
2022-09-12T13:39:30.044Z,7.65
2022-09-12T13:42:31.077Z,11.80
2022-09-12T13:45:03.281Z,9.63
2022-09-12T13:47:34.602Z,5.38
2022-09-12T13:50:07.245Z,7.60
2022-09-12T13:55:09.136Z,4.55
2022-09-12T13:57:41.368Z,3.78
2022-09-12T14:00:19.376Z,9.05
2022-09-12T14:02:49.276Z,5.78
2022-09-12T14:05:22.588Z,4.28
2022-09-12T14:07:58.420Z,4.10
2022-09-12T14:10:33.155Z,5.60
2022-09-12T14:13:05.534Z,4.35
2022-09-12T14:15:38.234Z,30.38
2022-09-12T14:20:39.922Z,8.38
2022-09-12T14:23:21.109Z,5.85
2022-09-12T14:25:52.135Z,3.72
2022-09-12T14:28:23.593Z,4.13
2022-09-12T14:31:00.689Z,3.30
2022-09-12T14:33:30.261Z,4.38
2022-09-12T14:36:13.199Z,4.53
2022-09-12T14:41:15.318Z,8.05
2022-09-12T14:43:47.196Z,2.97
2022-09-12T14:46:20.640Z,3.40
2022-09-12T14:48:52.338Z,7.88
2022-09-12T14:51:28.501Z,4.05
2022-09-12T14:53:58.453Z,3.65
2022-09-12T14:56:40.125Z,3.70
2022-09-12T14:59:31.932Z,4.72
2022-09-12T15:02:24.217Z,3.03
2022-09-12T15:04:55.384Z,3.23
2022-09-12T15:07:33.945Z,5.13
2022-09-12T15:10:06.662Z,4.78
2022-09-12T15:15:15.833Z,4.40
2022-09-12T15:17:46.896Z,3.90
2022-09-12T15:20:17.948Z,4.68
2022-09-12T15:22:48.164Z,71.78
2022-09-12T15:25:17.030Z,11.35
2022-09-12T15:27:46.381Z,8.55
2022-09-12T15:30:15.791Z,8.23
2022-09-12T15:32:45.458Z,3.15
2022-09-12T15:35:17.257Z,2.60
2022-09-12T15:37:47.278Z,2.30
2022-09-12T15:40:16.539Z,4.70
2022-09-12T15:42:45.640Z,3.30
2022-09-12T15:45:19.556Z,9.90
2022-09-12T15:47:50.589Z,7.88
2022-09-12T15:50:19.385Z,5.45
2022-09-12T15:52:49.630Z,4.50
2022-09-12T15:55:24.458Z,8.95
2022-09-12T15:57:53.173Z,5.25
2022-09-12T16:00:25.038Z,5.72
2022-09-12T16:02:54.676Z,2.90
2022-09-12T16:05:25.264Z,3.78
2022-09-12T16:07:56.459Z,3.13
2022-09-12T16:10:28.970Z,5.20
2022-09-12T16:12:58.335Z,5.03
2022-09-12T16:15:27.453Z,3.03
2022-09-12T16:17:56.155Z,6.60
2022-09-12T16:20:24.923Z,3.22
2022-09-12T16:22:57.319Z,4.22
2022-09-12T16:25:26.529Z,4.68
2022-09-12T16:27:55.337Z,3.13
2022-09-12T16:30:24.132Z,5.07
2022-09-12T16:32:53.571Z,3.05
2022-09-12T16:35:22.754Z,5.63
2022-09-12T16:37:51.746Z,4.38
2022-09-12T16:40:21.850Z,5.38
2022-09-12T16:42:52.980Z,4.60
2022-09-12T16:45:23.933Z,6.10
2022-09-12T16:47:52.579Z,5.72
2022-09-12T16:50:21.352Z,5.72
2022-09-12T16:52:50.010Z,4.63
2022-09-12T16:55:18.668Z,5.22
2022-09-12T16:57:50.918Z,8.68
2022-09-12T17:00:19.653Z,5.90
2022-09-12T17:02:50.523Z,57.95
2022-09-12T17:05:19.398Z,57.47
2022-09-12T17:07:48.014Z,26.55
2022-09-12T17:10:16.746Z,6.45
2022-09-12T17:12:45.445Z,3.53
2022-09-12T17:15:16.284Z,3.28
2022-09-12T17:17:45.836Z,3.72
2022-09-12T17:20:14.562Z,6.35
2022-09-12T17:22:46.209Z,7.68
2022-09-12T17:25:15.009Z,6.63
2022-09-12T17:27:43.722Z,6.53
2022-09-12T17:30:13.147Z,8.18
2022-09-12T17:32:43.166Z,4.20
2022-09-12T17:35:12.596Z,3.97
2022-09-12T17:37:41.687Z,4.18
2022-09-12T17:40:11.226Z,6.60
2022-09-12T17:42:41.008Z,4.57
2022-09-12T17:45:18.321Z,5.05
2022-09-12T17:47:50.761Z,6.32
2022-09-12T17:50:31.592Z,3.72
2022-09-12T17:53:03.796Z,4.97
2022-09-12T17:55:38.217Z,4.82
2022-09-12T17:58:08.203Z,5.20
2022-09-12T18:00:57.364Z,4.03
2022-09-12T18:03:27.896Z,4.85
2022-09-12T18:05:57.577Z,6.53
2022-09-12T18:08:26.581Z,5.72
2022-09-12T18:10:55.228Z,5.50
2022-09-12T18:13:26.417Z,6.57
2022-09-12T18:16:04.358Z,9.88
2022-09-12T18:18:35.224Z,5.82
2022-09-12T18:21:04.177Z,5.28
2022-09-12T18:23:35.480Z,4.18
2022-09-12T18:26:06.672Z,3.92
2022-09-12T18:28:36.152Z,6.05
2022-09-12T18:31:05.859Z,8.10
2022-09-12T18:33:36.034Z,5.78
2022-09-12T18:36:05.824Z,5.55
2022-09-12T18:38:34.679Z,14.10
2022-09-12T18:41:04.579Z,16.30
2022-09-12T18:43:33.912Z,7.18
2022-09-12T18:46:06.412Z,9.35
2022-09-12T18:48:37.122Z,5.75
2022-09-12T18:51:08.230Z,7.97
2022-09-12T18:53:39.998Z,9.45
2022-09-12T18:56:10.687Z,12.05
2022-09-12T18:58:42.084Z,6.75
2022-09-12T19:01:12.296Z,11.77
2022-09-12T19:03:43.066Z,9.18
2022-09-12T19:06:13.641Z,8.10
2022-09-12T19:08:42.774Z,7.65
2022-09-12T19:11:14.145Z,8.90
2022-09-12T19:13:48.490Z,6.43
2022-09-12T19:16:18.916Z,10.20
2022-09-12T19:18:49.896Z,8.90
2022-09-12T19:21:21.256Z,10.77
2022-09-12T19:23:54.527Z,7.28
2022-09-12T19:26:29.086Z,13.50
2022-09-12T19:29:02.583Z,13.15
2022-09-12T19:31:31.717Z,14.80
2022-09-12T19:34:02.687Z,33.15
2022-09-12T19:36:51.738Z,19.98
2022-09-12T19:39:28.651Z,14.10
2022-09-12T19:41:57.876Z,13.85
2022-09-12T19:44:27.698Z,12.98
2022-09-12T19:46:58.016Z,9.85
2022-09-12T19:49:36.816Z,8.43
2022-09-12T19:52:07.699Z,9.52
2022-09-12T19:54:41.782Z,8.85
2022-09-12T19:57:13.299Z,8.50
2022-09-12T19:59:48.276Z,11.70
2022-09-12T20:02:19.457Z,10.57
2022-09-12T20:04:52.790Z,14.63
2022-09-12T20:07:22.205Z,10.65
2022-09-12T20:09:51.258Z,11.43
2022-09-12T20:12:21.047Z,9.65
2022-09-12T20:14:51.936Z,12.75
2022-09-12T20:17:22.223Z,10.35
2022-09-12T20:19:54.653Z,9.73
2022-09-12T20:22:25.752Z,9.50
2022-09-12T20:24:57.197Z,9.15
2022-09-12T20:27:28.121Z,8.93
2022-09-12T20:30:01.841Z,12.60
2022-09-12T20:32:30.877Z,13.77
2022-09-12T20:35:00.991Z,11.18
2022-09-12T20:37:31.043Z,12.20
2022-09-12T20:39:59.862Z,13.32
2022-09-12T20:42:38.101Z,11.20
2022-09-12T20:45:09.571Z,11.90
2022-09-12T20:47:38.243Z,11.32
2022-09-12T20:50:09.277Z,9.63
2022-09-12T20:52:37.971Z,11.98
2022-09-12T20:55:07.637Z,13.20
2022-09-12T20:57:36.499Z,12.35
2022-09-12T21:00:07.460Z,15.45
2022-09-12T21:02:36.258Z,14.13
2022-09-12T21:05:05.479Z,14.43
2022-09-12T21:07:35.546Z,15.13
2022-09-12T21:10:04.622Z,19.88
2022-09-12T21:12:33.311Z,24.08
2022-09-12T21:15:02.001Z,15.25
2022-09-12T21:17:33.184Z,18.92
2022-09-12T21:20:02.231Z,15.70
2022-09-12T21:22:33.423Z,12.85
2022-09-12T21:25:03.583Z,13.77
2022-09-12T21:27:32.431Z,13.98
2022-09-12T21:30:03.403Z,12.30
2022-09-12T21:32:34.770Z,14.48
2022-09-12T21:35:04.176Z,11.80
2022-09-12T21:37:33.171Z,16.27
2022-09-12T21:40:03.726Z,12.40
2022-09-12T21:42:32.929Z,17.33
2022-09-12T21:45:01.615Z,13.45
2022-09-12T21:47:30.369Z,14.48
2022-09-12T21:50:01.478Z,17.13
2022-09-12T21:52:30.427Z,12.93
2022-09-12T21:54:59.185Z,16.90
2022-09-12T21:57:29.254Z,13.60
2022-09-12T21:59:57.938Z,16.30
2022-09-12T22:02:28.363Z,22.30
2022-09-12T22:04:57.350Z,15.35
2022-09-12T22:07:26.497Z,15.63
2022-09-12T22:09:55.325Z,14.02
2022-09-12T22:12:27.489Z,16.83
2022-09-12T22:14:57.513Z,17.42
2022-09-12T22:17:26.272Z,23.05
2022-09-12T22:19:54.953Z,15.57
2022-09-12T22:22:41.263Z,13.93
2022-09-12T22:25:11.321Z,19.20
2022-09-12T22:27:40.276Z,15.38
2022-09-12T22:30:11.874Z,17.33
2022-09-12T22:32:40.563Z,14.73
2022-09-12T22:35:09.686Z,16.30
2022-09-12T22:37:38.288Z,20.02
2022-09-12T22:40:07.830Z,17.65
2022-09-12T22:42:37.103Z,17.63
2022-09-12T22:45:07.689Z,15.63
2022-09-12T22:47:37.893Z,16.85
2022-09-12T22:50:07.757Z,18.08
2022-09-12T22:52:38.783Z,17.30
2022-09-12T22:55:10.917Z,19.17
2022-09-12T22:57:39.802Z,16.33
2022-09-12T23:00:10.587Z,17.38
2022-09-12T23:05:11.713Z,17.33
2022-09-12T23:07:40.484Z,15.40
2022-09-12T23:10:10.704Z,14.90
2022-09-12T23:12:39.413Z,14.95
2022-09-12T23:15:10.179Z,18.30
2022-09-12T23:17:38.884Z,17.20
2022-09-12T23:20:10.125Z,18.83
2022-09-12T23:22:38.852Z,20.73
2022-09-12T23:25:10.028Z,22.67
2022-09-12T23:27:40.110Z,17.35
2022-09-12T23:30:10.464Z,19.20
2022-09-12T23:32:39.551Z,14.93
2022-09-12T23:35:09.961Z,16.60
2022-09-12T23:37:38.633Z,18.83
2022-09-12T23:40:08.924Z,16.80
2022-09-12T23:42:37.731Z,16.42
2022-09-12T23:45:07.036Z,19.20
2022-09-12T23:47:35.666Z,19.30
2022-09-12T23:50:04.875Z,17.58
2022-09-12T23:52:35.197Z,19.70
2022-09-12T23:55:03.931Z,22.58
2022-09-12T23:57:32.589Z,20.20
